createdAt,value
2022-08-26T00:02:10.850Z,100981.78
2022-08-26T00:04:37.987Z,100974.50
2022-08-26T00:07:05.726Z,100971.69
2022-08-26T00:09:33.158Z,100968.06
2022-08-26T00:12:07.741Z,100968.03
2022-08-26T00:14:37.023Z,100964.38
2022-08-26T00:17:04.333Z,100965.19
2022-08-26T00:19:32.190Z,100959.91
2022-08-26T00:21:59.373Z,100965.56
2022-08-26T00:24:26.752Z,100958.69
2022-08-26T00:26:53.972Z,100957.88
2022-08-26T00:29:21.882Z,100955.44
2022-08-26T00:31:49.668Z,100959.44
2022-08-26T00:34:19.353Z,100950.56
2022-08-26T00:36:49.275Z,100952.13
2022-08-26T00:39:20.810Z,100948.03
2022-08-26T00:41:48.170Z,100948.38
2022-08-26T00:44:15.597Z,100949.53
2022-08-26T00:46:52.652Z,100946.25
2022-08-26T00:49:36.289Z,100949.88
2022-08-26T00:52:13.070Z,100944.22
2022-08-26T00:55:12.262Z,100939.84
2022-08-26T00:57:51.132Z,100942.25
2022-08-26T01:00:29.822Z,100943.41
2022-08-26T01:03:02.618Z,100949.88
2022-08-26T01:05:32.652Z,100941.47
2022-08-26T01:07:59.689Z,100947.94
2022-08-26T01:10:31.376Z,100936.31
2022-08-26T01:13:10.239Z,100946.91
2022-08-26T01:15:56.958Z,100942.94
2022-08-26T01:18:25.741Z,100942.53
2022-08-26T01:21:19.102Z,100940.16
2022-08-26T01:23:57.735Z,100945.41
2022-08-26T01:26:36.025Z,100940.16
2022-08-26T01:29:07.033Z,100932.09
2022-08-26T01:31:49.703Z,100940.13
2022-08-26T01:34:25.254Z,100941.69
2022-08-26T01:37:07.901Z,100933.13
2022-08-26T01:39:40.312Z,100940.72
2022-08-26T01:42:18.099Z,100937.50
2022-08-26T01:44:59.464Z,100939.44
2022-08-26T01:47:32.218Z,100934.16
2022-08-26T01:50:12.915Z,100932.09
2022-08-26T01:52:54.385Z,100928.00
2022-08-26T01:55:32.784Z,100932.47
2022-08-26T01:58:13.430Z,100937.72
2022-08-26T02:00:41.176Z,100929.66
2022-08-26T02:03:18.083Z,100934.03
2022-08-26T02:05:55.750Z,100927.19
2022-08-26T02:08:39.268Z,100926.75
2022-08-26T02:11:07.452Z,100923.03
2022-08-26T02:13:48.473Z,100933.84
2022-08-26T02:16:22.494Z,100935.88
2022-08-26T02:18:52.755Z,100931.47
2022-08-26T02:21:21.278Z,100932.66
2022-08-26T02:23:48.342Z,100933.06
2022-08-26T02:26:22.192Z,100927.84
2022-08-26T02:29:05.155Z,100929.03
2022-08-26T02:31:34.791Z,100928.22
2022-08-26T02:34:20.398Z,100928.66
2022-08-26T02:36:48.154Z,100919.00
2022-08-26T02:39:22.071Z,100932.28
2022-08-26T02:41:50.164Z,100922.59
2022-08-26T02:44:18.025Z,100916.16
2022-08-26T02:46:47.027Z,100911.72
2022-08-26T02:49:17.119Z,100908.47
2022-08-26T02:51:45.764Z,100915.69
2022-08-26T02:54:14.164Z,100903.56
2022-08-26T02:56:41.464Z,100910.78
2022-08-26T02:59:09.160Z,100903.94
2022-08-26T03:01:37.255Z,100899.13
2022-08-26T03:04:11.035Z,100905.13
2022-08-26T03:06:41.428Z,100914.34
2022-08-26T03:09:09.441Z,100895.03
2022-08-26T03:11:37.855Z,100905.88
2022-08-26T03:14:05.235Z,100900.59
2022-08-26T03:16:37.885Z,100902.19
2022-08-26T03:19:09.331Z,100907.75
2022-08-26T03:21:39.687Z,100903.34
2022-08-26T03:24:06.934Z,100906.53
2022-08-26T03:26:33.997Z,100893.19
2022-08-26T03:29:25.911Z,100896.84
2022-08-26T03:31:53.748Z,100899.97
2022-08-26T03:34:21.244Z,100904.06
2022-08-26T03:36:50.365Z,100889.16
2022-08-26T03:39:17.436Z,100888.34
2022-08-26T03:41:47.563Z,100892.81
2022-08-26T03:44:14.979Z,100888.72
2022-08-26T03:46:42.160Z,100889.94
2022-08-26T03:49:11.549Z,100883.78
2022-08-26T03:51:39.278Z,100882.53
2022-08-26T03:54:09.785Z,100887.38
2022-08-26T03:56:37.675Z,100880.09
2022-08-26T03:59:07.605Z,100888.09
2022-08-26T04:01:36.171Z,100885.28
2022-08-26T04:04:04.453Z,100886.94
2022-08-26T04:06:45.061Z,100880.47
2022-08-26T04:09:21.093Z,100883.72
2022-08-26T04:11:50.694Z,100881.75
2022-08-26T04:14:24.208Z,100887.38
2022-08-26T04:16:55.601Z,100876.47
2022-08-26T04:19:25.641Z,100880.09
2022-08-26T04:21:54.492Z,100891.78
2022-08-26T04:24:27.902Z,100890.97
2022-08-26T04:26:56.681Z,100879.34
2022-08-26T04:29:26.907Z,100889.06
2022-08-26T04:31:56.333Z,100886.69
2022-08-26T04:34:28.364Z,100885.47
2022-08-26T04:36:58.060Z,100875.84
2022-08-26T04:39:27.801Z,100881.13
2022-08-26T04:41:55.804Z,100875.09
2022-08-26T04:44:29.904Z,100876.38
2022-08-26T04:46:58.586Z,100873.69
2022-08-26T04:49:27.579Z,100875.34
2022-08-26T04:51:55.081Z,100867.31
2022-08-26T04:54:23.171Z,100876.63
2022-08-26T04:56:52.869Z,100871.00
2022-08-26T04:59:20.121Z,100875.91
2022-08-26T05:01:56.423Z,100874.78
2022-08-26T05:04:23.653Z,100880.06
2022-08-26T05:06:51.955Z,100880.13
2022-08-26T05:09:19.681Z,100884.97
2022-08-26T05:11:52.185Z,100882.19
2022-08-26T05:14:23.419Z,100883.06
2022-08-26T05:16:51.148Z,100891.16
2022-08-26T05:19:19.766Z,100887.94
2022-08-26T05:21:49.350Z,100888.84
2022-08-26T05:24:18.299Z,100894.97
2022-08-26T05:26:45.852Z,100903.22
2022-08-26T05:29:14.169Z,100894.56
2022-08-26T05:31:41.888Z,100903.28
2022-08-26T05:34:09.123Z,100902.59
2022-08-26T05:36:37.163Z,100904.69
2022-08-26T05:39:07.806Z,100900.25
2022-08-26T05:41:41.959Z,100901.84
2022-08-26T05:44:18.869Z,100897.03
2022-08-26T05:46:46.243Z,100904.31
2022-08-26T05:49:16.510Z,100900.78
2022-08-26T05:51:46.561Z,100904.03
2022-08-26T05:54:21.949Z,100897.19
2022-08-26T05:56:53.172Z,100897.66
2022-08-26T05:59:23.989Z,100890.81
2022-08-26T06:01:55.059Z,100895.69
2022-08-26T06:04:27.939Z,100892.06
2022-08-26T06:06:56.259Z,100900.91
2022-08-26T06:09:23.999Z,100904.50
2022-08-26T06:11:51.412Z,100900.53
2022-08-26T06:14:18.819Z,100896.13
2022-08-26T06:16:46.284Z,100893.41
2022-08-26T06:19:15.792Z,100896.28
2022-08-26T06:21:51.358Z,100900.34
2022-08-26T06:24:40.174Z,100902.81
2022-08-26T06:27:11.348Z,100893.13
2022-08-26T06:29:39.008Z,100888.69
2022-08-26T06:32:06.960Z,100888.72
2022-08-26T06:34:35.960Z,100885.09
2022-08-26T06:37:03.925Z,100894.78
2022-08-26T06:39:33.982Z,100897.22
2022-08-26T06:42:03.087Z,100890.75
2022-08-26T06:44:30.832Z,100894.34
2022-08-26T06:46:59.595Z,100882.97
2022-08-26T06:49:27.625Z,100882.53
2022-08-26T06:51:59.607Z,100891.34
2022-08-26T06:54:31.810Z,100890.81
2022-08-26T06:57:00.252Z,100887.47
2022-08-26T06:59:27.383Z,100887.78
2022-08-26T07:01:55.851Z,100892.97
2022-08-26T07:04:24.732Z,100896.09
2022-08-26T07:06:54.013Z,100887.53
2022-08-26T07:09:33.182Z,100884.84
2022-08-26T07:12:00.327Z,100886.72
2022-08-26T07:14:27.445Z,100888.91
2022-08-26T07:16:55.062Z,100894.41
2022-08-26T07:19:29.908Z,100894.91
2022-08-26T07:22:02.231Z,100886.25
2022-08-26T07:24:32.964Z,100890.19
2022-08-26T07:27:13.645Z,100883.56
2022-08-26T07:29:43.499Z,100881.91
2022-08-26T07:32:14.369Z,100879.78
2022-08-26T07:34:43.592Z,100883.69
2022-08-26T07:37:11.283Z,100872.22
2022-08-26T07:39:40.438Z,100871.13
2022-08-26T07:42:14.851Z,100876.94
2022-08-26T07:44:43.657Z,100879.25
2022-08-26T07:47:25.431Z,100873.47
2022-08-26T07:49:57.670Z,100883.53
2022-08-26T07:52:30.679Z,100871.28
2022-08-26T07:55:02.161Z,100879.56
2022-08-26T07:57:30.485Z,100873.28
2022-08-26T07:59:59.803Z,100872.81
2022-08-26T08:02:29.477Z,100874.72
2022-08-26T08:04:58.550Z,100870.59
2022-08-26T08:07:38.563Z,100861.03
2022-08-26T08:10:25.215Z,100855.88
2022-08-26T08:12:53.970Z,100863.16
2022-08-26T08:15:28.795Z,100872.06
2022-08-26T08:18:00.222Z,100864.50
2022-08-26T08:20:30.072Z,100862.22
2022-08-26T08:22:57.476Z,100860.72
2022-08-26T08:25:25.087Z,100855.88
2022-08-26T08:27:52.065Z,100853.13
2022-08-26T08:30:24.519Z,100867.28
2022-08-26T08:32:53.389Z,100853.75
2022-08-26T08:35:24.039Z,100854.94
2022-08-26T08:37:54.495Z,100842.63
2022-08-26T08:40:27.586Z,100847.56
2022-08-26T08:43:10.019Z,100836.66
2022-08-26T08:46:07.233Z,100838.75
2022-08-26T08:48:44.672Z,100843.38
2022-08-26T08:51:42.475Z,100840.59
2022-08-26T08:54:12.100Z,100832.78
2022-08-26T08:56:55.435Z,100832.53
2022-08-26T08:59:35.897Z,100830.16
2022-08-26T09:02:51.075Z,100830.78
2022-08-26T09:05:34.215Z,100827.06
2022-08-26T09:08:25.167Z,100832.19
2022-08-26T09:11:01.046Z,100821.53
2022-08-26T09:13:29.397Z,100819.03
2022-08-26T09:16:15.868Z,100820.06
2022-08-26T09:20:02.436Z,100820.13
2022-08-26T09:22:35.931Z,100823.97
2022-08-26T09:25:11.665Z,100813.66
2022-08-26T09:27:50.440Z,100818.28
2022-08-26T09:30:37.426Z,100819.00
2022-08-26T09:33:18.256Z,100820.69
2022-08-26T09:35:48.770Z,100812.13
2022-08-26T09:38:43.132Z,100810.22
2022-08-26T09:41:37.130Z,100806.06
2022-08-26T09:44:20.793Z,100803.94
2022-08-26T09:47:05.736Z,100806.72
2022-08-26T09:49:39.301Z,100795.53
2022-08-26T09:52:27.245Z,100798.28
2022-08-26T09:55:23.705Z,100796.16
2022-08-26T09:57:55.787Z,100783.97
2022-08-26T10:00:58.826Z,100779.59
2022-08-26T10:03:38.084Z,100776.78
2022-08-26T10:06:26.792Z,100771.03
2022-08-26T10:09:03.591Z,100769.78
2022-08-26T10:11:57.004Z,100753.97
2022-08-26T10:18:34.266Z,100742.06
2022-08-26T10:21:20.843Z,100737.09
2022-08-26T10:23:57.328Z,100728.81
2022-08-26T10:27:17.522Z,100721.66
2022-08-26T10:30:00.401Z,100716.09
2022-08-26T10:32:49.880Z,100720.00
2022-08-26T10:35:20.438Z,100720.13
2022-08-26T10:37:58.141Z,100707.84
2022-08-26T10:40:46.764Z,100706.47
2022-08-26T10:43:26.540Z,100701.41
2022-08-26T10:46:06.879Z,100693.78
2022-08-26T10:49:10.392Z,100696.31
2022-08-26T10:52:16.963Z,100692.75
2022-08-26T10:55:02.018Z,100685.56
2022-08-26T10:58:08.877Z,100681.09
2022-08-26T11:01:22.807Z,100676.75
2022-08-26T11:04:16.815Z,100678.44
2022-08-26T11:06:47.094Z,100681.13
2022-08-26T11:09:47.538Z,100677.06
2022-08-26T11:12:34.605Z,100670.03
2022-08-26T11:15:07.309Z,100686.97
2022-08-26T11:17:44.969Z,100673.03
2022-08-26T11:20:24.305Z,100674.31
2022-08-26T11:22:55.174Z,100672.25
2022-08-26T11:25:29.892Z,100666.66
2022-08-26T11:28:00.928Z,100661.47
2022-08-26T11:30:42.766Z,100654.19
2022-08-26T11:33:59.889Z,100650.38
2022-08-26T11:36:47.901Z,100652.56
2022-08-26T11:39:55.139Z,100660.72
2022-08-26T11:42:55.661Z,100670.72
2022-08-26T11:45:45.007Z,100646.97
2022-08-26T11:48:27.088Z,100649.41
2022-08-26T11:51:00.576Z,100666.72
2022-08-26T11:53:33.467Z,100669.09
2022-08-26T11:56:10.092Z,100675.09
2022-08-26T11:58:56.789Z,100673.34
2022-08-26T12:01:38.222Z,100670.41
2022-08-26T12:04:13.793Z,100672.19
2022-08-26T12:06:52.470Z,100654.91
2022-08-26T12:09:31.533Z,100663.84
2022-08-26T12:12:18.977Z,100671.09
2022-08-26T12:14:46.411Z,100675.63
2022-08-26T12:17:27.961Z,100685.94
2022-08-26T12:19:54.982Z,100684.91
2022-08-26T12:22:36.211Z,100691.03
2022-08-26T12:25:09.997Z,100701.97
2022-08-26T12:27:48.673Z,100719.78
2022-08-26T12:30:26.146Z,100729.53
2022-08-26T12:33:22.310Z,100745.00
2022-08-26T12:35:56.405Z,100744.38
2022-08-26T12:38:27.982Z,100730.38
2022-08-26T12:40:57.243Z,100712.78
2022-08-26T12:43:46.293Z,100724.25
2022-08-26T12:46:28.630Z,100732.00
2022-08-26T12:49:01.196Z,100719.13
2022-08-26T12:51:34.901Z,100714.69
2022-08-26T12:54:06.876Z,100709.03
2022-08-26T12:56:39.957Z,100692.44
2022-08-26T12:59:25.187Z,100685.56
2022-08-26T13:01:54.822Z,100699.69
2022-08-26T13:04:43.791Z,100716.22
2022-08-26T13:07:26.890Z,100748.06
2022-08-26T13:09:59.078Z,100765.75
2022-08-26T13:12:37.365Z,100758.53
2022-08-26T13:15:06.932Z,100735.88
2022-08-26T13:17:36.005Z,100705.13
2022-08-26T13:20:04.801Z,100685.31
2022-08-26T13:22:34.264Z,100663.50
2022-08-26T13:25:01.423Z,100667.84
2022-08-26T13:27:29.201Z,100656.97
2022-08-26T13:29:57.781Z,100661.78
2022-08-26T13:32:27.350Z,100671.81
2022-08-26T13:34:57.906Z,100669.91
2022-08-26T13:37:34.695Z,100665.03
2022-08-26T13:40:07.168Z,100657.31
2022-08-26T13:42:34.701Z,100649.78
2022-08-26T13:45:02.465Z,100653.41
2022-08-26T13:47:29.577Z,100644.97
2022-08-26T13:49:56.805Z,100655.84
2022-08-26T13:52:30.282Z,100680.00
2022-08-26T13:55:00.857Z,100710.22
2022-08-26T13:57:30.320Z,100749.63
2022-08-26T13:59:59.599Z,100751.56
2022-08-26T14:02:28.421Z,100745.88
2022-08-26T14:04:56.068Z,100771.56
2022-08-26T14:07:23.738Z,100761.13
2022-08-26T14:09:50.999Z,100763.53
2022-08-26T14:12:19.109Z,100767.94
2022-08-26T14:14:46.328Z,100766.72
2022-08-26T14:17:25.177Z,100778.78
2022-08-26T14:19:53.913Z,100798.31
2022-08-26T14:22:23.214Z,100802.56
2022-08-26T14:24:51.110Z,100782.69
2022-08-26T14:27:18.193Z,100758.25
2022-08-26T14:29:45.366Z,100743.22
2022-08-26T14:32:27.309Z,100740.59
2022-08-26T14:34:55.871Z,100751.72
2022-08-26T14:37:22.983Z,100730.00
2022-08-26T14:39:50.637Z,100713.97
2022-08-26T14:42:31.548Z,100709.88
2022-08-26T14:45:09.718Z,100704.19
2022-08-26T14:47:36.934Z,100696.09
2022-08-26T14:50:04.603Z,100693.69
2022-08-26T14:52:51.647Z,100682.03
2022-08-26T14:55:18.930Z,100677.28
2022-08-26T14:57:46.030Z,100652.31
2022-08-26T15:00:13.775Z,100634.41
2022-08-26T15:02:41.332Z,100629.56
2022-08-26T15:05:10.917Z,100619.56
2022-08-26T15:07:40.308Z,100610.75
2022-08-26T15:10:13.841Z,100603.97
2022-08-26T15:12:42.444Z,100595.97
2022-08-26T15:15:15.101Z,100596.88
2022-08-26T15:17:42.209Z,100592.88
2022-08-26T15:20:12.928Z,100600.59
2022-08-26T15:22:42.446Z,100606.63
2022-08-26T15:25:11.665Z,100608.19
2022-08-26T15:27:39.838Z,100605.38
2022-08-26T15:30:11.829Z,100603.28
2022-08-26T15:32:39.264Z,100602.91
2022-08-26T15:35:09.235Z,100597.31
2022-08-26T15:37:36.767Z,100591.31
2022-08-26T15:40:05.645Z,100580.38
2022-08-26T15:42:32.953Z,100586.41
2022-08-26T15:44:59.995Z,100583.16
2022-08-26T15:47:27.201Z,100568.28
2022-08-26T15:49:55.585Z,100571.41
2022-08-26T15:52:22.682Z,100558.56
2022-08-26T15:54:49.869Z,100553.66
2022-08-26T15:57:19.702Z,100544.06
2022-08-26T15:59:46.870Z,100542.47
2022-08-26T16:02:14.006Z,100539.31
2022-08-26T16:04:41.271Z,100552.56
2022-08-26T16:07:10.697Z,100547.75
2022-08-26T16:09:37.841Z,100544.53
2022-08-26T16:12:06.171Z,100538.47
2022-08-26T16:14:33.740Z,100548.09
2022-08-26T16:17:01.269Z,100529.56
2022-08-26T16:19:28.345Z,100533.56
2022-08-26T16:21:55.394Z,100548.47
2022-08-26T16:24:27.137Z,100557.28
2022-08-26T16:26:57.223Z,100564.13
2022-08-26T16:29:24.682Z,100566.53
2022-08-26T16:31:53.411Z,100573.84
2022-08-26T16:34:21.740Z,100588.78
2022-08-26T16:36:48.874Z,100594.84
2022-08-26T16:39:16.070Z,100603.63
2022-08-26T16:41:44.336Z,100607.63
2022-08-26T16:44:12.091Z,100603.25
2022-08-26T16:46:39.775Z,100612.16
2022-08-26T16:49:07.046Z,100614.59
2022-08-26T16:51:37.725Z,100611.78
2022-08-26T16:54:07.697Z,100616.22
2022-08-26T16:56:36.550Z,100606.53
2022-08-26T16:59:10.596Z,100607.69
2022-08-26T17:01:37.927Z,100617.28
2022-08-26T17:04:05.287Z,100620.09
2022-08-26T17:06:32.778Z,100620.50
2022-08-26T17:09:00.009Z,100621.78
2022-08-26T17:11:27.265Z,100627.44
2022-08-26T17:13:54.402Z,100627.41
2022-08-26T17:16:26.411Z,100631.81
2022-08-26T17:18:57.885Z,100626.94
2022-08-26T17:21:28.509Z,100616.00
2022-08-26T17:23:56.463Z,100611.19
2022-08-26T17:26:23.764Z,100617.69
2022-08-26T17:28:51.330Z,100614.47
2022-08-26T17:31:19.557Z,100613.19
2022-08-26T17:33:53.431Z,100613.53
2022-08-26T17:36:28.098Z,100601.38
2022-08-26T17:38:58.266Z,100604.09
2022-08-26T17:41:27.408Z,100604.56
2022-08-26T17:43:54.939Z,100599.00
2022-08-26T17:46:23.857Z,100602.28
2022-08-26T17:48:51.170Z,100596.22
2022-08-26T17:51:19.853Z,100599.88
2022-08-26T17:53:48.810Z,100599.88
2022-08-26T17:56:29.968Z,100601.13
2022-08-26T17:59:02.475Z,100598.75
2022-08-26T18:01:32.395Z,100595.94
2022-08-26T18:04:00.673Z,100600.78
2022-08-26T18:06:30.741Z,100602.41
2022-08-26T18:08:59.456Z,100586.66
2022-08-26T18:11:28.378Z,100587.00
2022-08-26T18:13:55.607Z,100587.75
2022-08-26T18:16:22.768Z,100592.63
2022-08-26T18:18:53.279Z,100596.28
2022-08-26T18:21:26.892Z,100599.50
2022-08-26T18:23:55.462Z,100593.47
2022-08-26T18:26:33.509Z,100592.69
2022-08-26T18:29:02.278Z,100591.41
2022-08-26T18:31:31.148Z,100580.88
2022-08-26T18:34:03.054Z,100584.94
2022-08-26T18:36:35.877Z,100573.66
2022-08-26T18:39:07.605Z,100565.63
2022-08-26T18:41:45.532Z,100568.84
2022-08-26T18:44:17.214Z,100562.00
2022-08-26T18:46:47.891Z,100559.94
2022-08-26T18:49:20.564Z,100562.69
2022-08-26T18:51:50.647Z,100569.09
2022-08-26T18:57:06.327Z,100554.53
2022-08-26T18:59:34.375Z,100554.94
2022-08-26T19:02:01.790Z,100557.38
2022-08-26T19:04:29.448Z,100561.84
2022-08-26T19:06:56.925Z,100569.09
2022-08-26T19:09:26.421Z,100566.63
2022-08-26T19:14:23.676Z,100580.31
2022-08-26T19:16:52.647Z,100583.09
2022-08-26T19:19:25.887Z,100594.69
2022-08-26T19:21:54.358Z,100603.06
2022-08-26T19:24:22.510Z,100612.97
2022-08-26T19:26:59.004Z,100615.72
2022-08-26T19:29:33.754Z,100619.75
2022-08-26T19:32:02.250Z,100625.81
2022-08-26T19:34:29.771Z,100632.28
2022-08-26T19:36:58.474Z,100635.16
2022-08-26T19:39:27.779Z,100634.38
2022-08-26T19:41:55.121Z,100643.66
2022-08-26T19:44:42.409Z,100639.19
2022-08-26T19:47:12.133Z,100634.81
2022-08-26T19:49:39.597Z,100630.44
2022-08-26T19:52:07.297Z,100630.00
2022-08-26T19:54:36.337Z,100628.81
2022-08-26T19:57:05.819Z,100627.22
2022-08-26T19:59:33.330Z,100635.28
2022-08-26T20:02:01.699Z,100636.88
2022-08-26T20:04:32.061Z,100640.06
2022-08-26T20:07:02.106Z,100648.44
2022-08-26T20:09:34.078Z,100649.69
2022-08-26T20:12:03.102Z,100645.69
2022-08-26T20:14:30.441Z,100658.97
2022-08-26T20:16:58.517Z,100651.78
2022-08-26T20:19:44.627Z,100657.44
2022-08-26T20:22:15.385Z,100660.28
2022-08-26T20:24:42.584Z,100655.44
2022-08-26T20:27:09.946Z,100649.03
2022-08-26T20:29:39.856Z,100652.63
2022-08-26T20:32:08.442Z,100659.53
2022-08-26T20:34:37.734Z,100650.25
2022-08-26T20:37:05.964Z,100657.50
2022-08-26T20:39:33.212Z,100659.53
2022-08-26T20:42:00.306Z,100669.56
2022-08-26T20:44:27.562Z,100670.38
2022-08-26T20:46:55.462Z,100669.66
2022-08-26T20:49:22.827Z,100667.19
2022-08-26T20:51:52.799Z,100670.78
2022-08-26T20:54:28.342Z,100665.16
2022-08-26T20:56:58.798Z,100671.63
2022-08-26T20:59:27.091Z,100670.78
2022-08-26T21:01:55.022Z,100671.25
2022-08-26T21:04:27.521Z,100676.50
2022-08-26T21:06:55.328Z,100680.94
2022-08-26T21:09:26.022Z,100680.53
2022-08-26T21:11:55.459Z,100679.34
2022-08-26T21:14:25.879Z,100680.59
2022-08-26T21:16:54.344Z,100674.22
2022-08-26T21:19:21.916Z,100679.50
2022-08-26T21:21:50.478Z,100675.88
2022-08-26T21:24:18.177Z,100671.06
2022-08-26T21:26:47.680Z,100669.09
2022-08-26T21:29:15.359Z,100667.09
2022-08-26T21:31:46.501Z,100668.69
2022-08-26T21:34:19.781Z,100654.59
2022-08-26T21:36:49.732Z,100663.81
2022-08-26T21:39:18.704Z,100650.53
2022-08-26T21:41:47.447Z,100658.59
2022-08-26T21:44:18.003Z,100653.78
2022-08-26T21:46:47.286Z,100662.63
2022-08-26T21:49:17.531Z,100661.38
2022-08-26T21:51:48.522Z,100655.72
2022-08-26T21:54:18.293Z,100670.19
2022-08-26T21:56:47.716Z,100673.31
2022-08-26T21:59:19.585Z,100680.91
2022-08-26T22:01:47.508Z,100684.84
2022-08-26T22:04:16.822Z,100680.06
2022-08-26T22:06:51.161Z,100660.69
2022-08-26T22:09:25.034Z,100656.59
2022-08-26T22:11:56.999Z,100652.94
2022-08-26T22:14:30.933Z,100647.31
2022-08-26T22:17:00.100Z,100652.09
2022-08-26T22:19:27.527Z,100655.66
2022-08-26T22:21:56.079Z,100643.53
2022-08-26T22:24:27.465Z,100631.44
2022-08-26T22:26:56.072Z,100620.91
2022-08-26T22:29:25.688Z,100621.22
2022-08-26T22:31:53.892Z,100614.44
2022-08-26T22:34:23.288Z,100615.72
2022-08-26T22:36:51.211Z,100603.16
2022-08-26T22:39:25.988Z,100595.88
2022-08-26T22:41:55.365Z,100588.25
2022-08-26T22:44:23.004Z,100580.22
2022-08-26T22:46:54.448Z,100569.00
2022-08-26T22:49:22.320Z,100563.75
2022-08-26T22:51:51.068Z,100561.78
2022-08-26T22:54:18.188Z,100554.56
2022-08-26T22:56:45.965Z,100550.16
2022-08-26T22:59:13.687Z,100549.38
2022-08-26T23:01:44.334Z,100544.19
2022-08-26T23:04:12.305Z,100550.22
2022-08-26T23:06:47.490Z,100553.41
2022-08-26T23:09:18.744Z,100556.25
2022-08-26T23:11:48.677Z,100577.16
2022-08-26T23:14:19.130Z,100586.78
2022-08-26T23:16:47.497Z,100599.19
2022-08-26T23:19:20.350Z,100596.75
2022-08-26T23:21:49.676Z,100595.56
2022-08-26T23:24:18.868Z,100589.59
2022-08-26T23:26:46.992Z,100594.44
2022-08-26T23:29:15.980Z,100596.47
2022-08-26T23:31:43.849Z,100599.28
2022-08-26T23:34:30.047Z,100607.31
2022-08-26T23:36:59.313Z,100610.91
2022-08-26T23:39:31.030Z,100604.91
2022-08-26T23:41:58.288Z,100602.41
2022-08-26T23:44:26.677Z,100587.97
2022-08-26T23:46:55.134Z,100591.66
2022-08-26T23:49:23.486Z,100589.22
2022-08-26T23:52:09.556Z,100590.84
2022-08-26T23:54:38.626Z,100600.88
2022-08-26T23:57:07.888Z,100606.50
2022-08-26T23:59:38.247Z,100599.66
